createdAt,value
2018-02-25T00:00:23.360Z,2.20
2018-02-25T00:01:23.162Z,2.40
2018-02-25T00:03:16.426Z,2.30
2018-02-25T00:04:16.326Z,2.20
2018-02-25T00:06:09.570Z,2.00
2018-02-25T00:07:09.497Z,2.20
2018-02-25T00:09:02.753Z,2.10
2018-02-25T00:10:02.658Z,2.20
2018-02-25T00:11:55.901Z,2.40
2018-02-25T00:12:55.825Z,2.40
2018-02-25T00:14:49.087Z,2.50
2018-02-25T00:15:48.993Z,2.40
2018-02-25T00:17:42.253Z,2.60
2018-02-25T00:18:42.158Z,2.60
2018-02-25T00:20:35.414Z,2.60
2018-02-25T00:21:35.335Z,2.50
2018-02-25T00:23:28.598Z,2.70
2018-02-25T00:24:28.501Z,2.50
2018-02-25T00:26:21.745Z,2.30
2018-02-25T00:27:21.666Z,2.20
2018-02-25T00:29:14.931Z,2.60
2018-02-25T00:30:14.827Z,2.30
2018-02-25T00:32:08.075Z,2.40
2018-02-25T00:33:08.006Z,2.60
2018-02-25T00:35:01.265Z,2.30
2018-02-25T00:36:01.162Z,2.40
2018-02-25T00:37:54.437Z,2.40
2018-02-25T00:38:54.339Z,2.30
2018-02-25T00:40:47.575Z,2.30
2018-02-25T00:41:47.499Z,2.20
2018-02-25T00:43:40.758Z,2.80
2018-02-25T00:44:40.663Z,2.90
2018-02-25T00:46:33.905Z,2.70
2018-02-25T00:47:33.828Z,2.40
2018-02-25T00:49:27.091Z,2.90
2018-02-25T00:50:26.999Z,2.50
2018-02-25T00:52:20.237Z,2.50
2018-02-25T00:53:20.161Z,2.60
2018-02-25T00:55:13.433Z,2.00
2018-02-25T00:56:13.334Z,2.40
2018-02-25T00:58:06.609Z,2.70
2018-02-25T00:59:06.510Z,2.50
2018-02-25T01:00:59.755Z,2.80
2018-02-25T01:01:59.677Z,2.50
2018-02-25T01:03:52.942Z,2.50
2018-02-25T01:04:52.843Z,2.60
2018-02-25T01:06:46.085Z,3.00
2018-02-25T01:07:46.009Z,2.60
2018-02-25T01:09:39.271Z,2.50
2018-02-25T01:10:39.174Z,2.60
2018-02-25T01:12:32.576Z,2.80
2018-02-25T01:13:32.497Z,2.40
2018-02-25T01:15:25.876Z,2.70
2018-02-25T01:16:25.661Z,2.80
2018-02-25T01:18:18.927Z,2.80
2018-02-25T01:19:18.828Z,2.50
2018-02-25T01:21:12.071Z,2.70
2018-02-25T01:22:11.994Z,2.50
2018-02-25T01:24:05.254Z,2.70
2018-02-25T01:25:05.158Z,2.80
2018-02-25T01:26:58.580Z,2.50
2018-02-25T01:27:58.501Z,2.40
2018-02-25T01:29:51.753Z,2.70
2018-02-25T01:30:51.659Z,2.60
2018-02-25T01:32:45.015Z,2.60
2018-02-25T01:33:44.822Z,2.60
2018-02-25T01:35:38.087Z,2.70
2018-02-25T01:36:37.992Z,2.70
2018-02-25T01:38:31.252Z,2.50
2018-02-25T01:39:31.157Z,2.60
2018-02-25T01:41:24.583Z,2.70
2018-02-25T01:42:24.508Z,2.30
2018-02-25T01:44:17.770Z,2.70
2018-02-25T01:45:17.673Z,3.10
2018-02-25T01:47:11.033Z,2.80
2018-02-25T01:48:10.842Z,2.60
2018-02-25T01:50:04.094Z,2.80
2018-02-25T01:51:03.997Z,2.70
2018-02-25T01:52:57.258Z,2.70
2018-02-25T01:53:57.163Z,2.40
2018-02-25T01:55:50.596Z,2.40
2018-02-25T01:56:50.500Z,2.60
2018-02-25T01:58:43.760Z,2.60
2018-02-25T01:59:43.662Z,2.40
2018-02-25T02:01:36.919Z,2.50
2018-02-25T02:02:36.836Z,2.60
2018-02-25T02:04:30.098Z,2.80
2018-02-25T02:05:30.002Z,2.80
2018-02-25T02:07:23.244Z,2.80
2018-02-25T02:08:23.165Z,2.30
2018-02-25T02:10:16.606Z,2.40
2018-02-25T02:11:16.508Z,2.40
2018-02-25T02:13:09.781Z,2.70
2018-02-25T02:14:09.682Z,2.60
2018-02-25T02:16:02.945Z,2.60
2018-02-25T02:17:02.848Z,2.50
2018-02-25T02:18:56.107Z,2.50
2018-02-25T02:19:56.006Z,2.40
2018-02-25T02:21:49.254Z,2.40
2018-02-25T02:22:49.175Z,2.40
2018-02-25T02:24:42.592Z,2.50
2018-02-25T02:25:42.494Z,2.90
2018-02-25T02:27:35.733Z,2.50
2018-02-25T02:28:35.658Z,2.30
2018-02-25T02:30:29.043Z,2.40
2018-02-25T02:31:28.814Z,2.40
2018-02-25T02:33:22.074Z,2.40
2018-02-25T02:34:21.977Z,2.60
2018-02-25T02:36:15.242Z,2.00
2018-02-25T02:37:15.140Z,2.50
2018-02-25T02:39:08.404Z,2.50
2018-02-25T02:40:08.307Z,2.50
2018-02-25T02:42:01.580Z,2.90
2018-02-25T02:43:01.493Z,3.00
2018-02-25T02:44:54.752Z,2.70
2018-02-25T02:45:54.662Z,2.70
2018-02-25T02:47:48.016Z,2.30
2018-02-25T02:48:47.826Z,2.60
2018-02-25T02:50:41.161Z,2.40
2018-02-25T02:51:40.978Z,2.40
2018-02-25T02:53:34.249Z,2.80
2018-02-25T02:54:34.145Z,2.60
2018-02-25T02:56:27.583Z,2.60
2018-02-25T02:57:27.500Z,2.70
2018-02-25T02:59:20.876Z,2.60
2018-02-25T03:00:20.664Z,2.50
2018-02-25T03:02:13.907Z,2.60
2018-02-25T03:03:13.829Z,2.90
2018-02-25T03:05:07.093Z,2.70
2018-02-25T03:06:06.992Z,3.00
2018-02-25T03:08:00.241Z,2.80
2018-02-25T03:09:00.160Z,2.90
2018-02-25T03:10:53.605Z,2.80
2018-02-25T03:11:53.505Z,2.90
2018-02-25T03:13:46.888Z,2.50
2018-02-25T03:14:46.668Z,2.70
2018-02-25T03:16:40.024Z,2.80
2018-02-25T03:17:39.860Z,2.60
2018-02-25T03:19:33.096Z,3.00
2018-02-25T03:20:33.000Z,2.70
2018-02-25T03:22:26.237Z,2.90
2018-02-25T03:23:26.161Z,3.00
2018-02-25T03:25:19.604Z,2.70
2018-02-25T03:26:19.505Z,2.70
2018-02-25T03:28:12.865Z,2.60
2018-02-25T03:29:12.671Z,2.80
2018-02-25T03:31:06.059Z,3.20
2018-02-25T03:32:05.830Z,3.30
2018-02-25T03:33:59.094Z,2.90
2018-02-25T03:34:58.999Z,2.50
2018-02-25T03:36:52.355Z,2.20
2018-02-25T03:37:52.163Z,2.60
2018-02-25T03:39:46.045Z,3.10
2018-02-25T03:40:45.503Z,3.10
2018-02-25T03:42:38.745Z,2.70
2018-02-25T03:43:38.666Z,3.00
2018-02-25T03:45:31.931Z,3.00
2018-02-25T03:46:31.833Z,2.80
2018-02-25T03:48:25.075Z,2.90
2018-02-25T03:49:25.028Z,3.00
2018-02-25T03:51:18.370Z,3.00
2018-02-25T03:52:18.158Z,3.10
2018-02-25T03:54:11.600Z,3.00
2018-02-25T03:55:11.504Z,2.30
2018-02-25T03:57:04.738Z,2.80
2018-02-25T03:58:04.661Z,2.90
2018-02-25T03:59:57.912Z,3.00
2018-02-25T04:00:57.816Z,2.60
2018-02-25T04:02:51.056Z,2.80
2018-02-25T04:03:50.979Z,2.80
2018-02-25T04:05:44.240Z,3.10
2018-02-25T04:06:44.141Z,2.90
2018-02-25T04:08:37.580Z,3.10
2018-02-25T04:09:37.499Z,2.70
2018-02-25T04:11:30.759Z,2.90
2018-02-25T04:12:30.661Z,2.60
2018-02-25T04:14:23.921Z,2.90
2018-02-25T04:15:23.823Z,2.70
2018-02-25T04:17:17.068Z,2.90
2018-02-25T04:18:16.990Z,2.80
2018-02-25T04:20:10.244Z,2.80
2018-02-25T04:21:10.142Z,2.80
2018-02-25T04:23:03.579Z,3.30
2018-02-25T04:24:03.500Z,3.10
2018-02-25T04:25:56.762Z,2.90
2018-02-25T04:26:56.663Z,3.00
2018-02-25T04:28:49.911Z,2.90
2018-02-25T04:29:49.826Z,2.90
2018-02-25T04:31:43.209Z,3.00
2018-02-25T04:32:42.987Z,2.60
2018-02-25T04:34:36.260Z,3.00
2018-02-25T04:35:36.153Z,3.50
2018-02-25T04:37:29.576Z,3.00
2018-02-25T04:38:29.503Z,3.20
2018-02-25T04:40:22.759Z,3.10
2018-02-25T04:41:22.663Z,3.20
2018-02-25T04:43:15.906Z,3.30
2018-02-25T04:44:15.829Z,3.10
2018-02-25T04:46:09.206Z,3.10
2018-02-25T04:47:08.990Z,3.30
2018-02-25T04:49:02.233Z,3.20
2018-02-25T04:50:02.152Z,2.90
2018-02-25T04:51:55.594Z,3.20
2018-02-25T04:52:55.502Z,2.90
2018-02-25T04:54:48.757Z,3.20
2018-02-25T04:55:48.662Z,3.30
2018-02-25T04:57:41.914Z,3.30
2018-02-25T04:58:41.835Z,3.10
2018-02-25T05:00:35.215Z,3.00
2018-02-25T05:01:34.996Z,3.40
2018-02-25T05:03:28.251Z,3.00
2018-02-25T05:04:28.171Z,3.30
2018-02-25T05:06:21.602Z,3.00
2018-02-25T05:07:21.498Z,3.10
2018-02-25T05:09:14.868Z,2.80
2018-02-25T05:10:14.669Z,3.00
2018-02-25T05:12:07.923Z,3.20
2018-02-25T05:13:07.848Z,3.30
2018-02-25T05:15:01.086Z,3.40
2018-02-25T05:16:00.987Z,3.00
2018-02-25T05:17:54.231Z,3.30
2018-02-25T05:18:54.150Z,3.50
2018-02-25T05:20:47.607Z,3.20
2018-02-25T05:21:47.495Z,2.90
2018-02-25T05:23:40.736Z,3.30
2018-02-25T05:24:40.658Z,3.20
2018-02-25T05:26:33.924Z,3.20
2018-02-25T05:27:33.822Z,2.90
2018-02-25T05:29:27.064Z,3.40
2018-02-25T05:30:26.992Z,3.40
2018-02-25T05:32:20.244Z,3.20
2018-02-25T05:33:20.148Z,3.10
2018-02-25T05:35:13.598Z,3.20
2018-02-25T05:36:13.500Z,2.90
2018-02-25T05:38:06.737Z,3.40
2018-02-25T05:39:06.661Z,3.10
2018-02-25T05:41:00.037Z,2.80
2018-02-25T05:41:59.828Z,3.30
2018-02-25T05:43:53.063Z,3.30
2018-02-25T05:44:52.987Z,3.40
2018-02-25T05:46:46.245Z,3.20
2018-02-25T05:47:46.147Z,3.10
2018-02-25T05:49:39.579Z,3.30
2018-02-25T05:50:39.502Z,3.20
2018-02-25T05:52:32.761Z,3.00
2018-02-25T05:53:32.663Z,3.00
2018-02-25T05:55:25.921Z,3.20
2018-02-25T05:56:25.820Z,3.00
2018-02-25T05:58:19.181Z,3.10
2018-02-25T05:59:18.987Z,3.60
2018-02-25T06:01:12.259Z,3.20
2018-02-25T06:02:12.157Z,3.10
2018-02-25T06:04:05.582Z,3.10
2018-02-25T06:05:05.506Z,3.10
2018-02-25T06:06:58.756Z,3.40
2018-02-25T06:07:58.665Z,3.30
2018-02-25T06:09:52.020Z,2.90
2018-02-25T06:10:51.842Z,2.90
2018-02-25T06:12:45.101Z,2.90
2018-02-25T06:13:45.000Z,3.20
2018-02-25T06:15:38.261Z,3.10
2018-02-25T06:16:38.162Z,2.80
2018-02-25T06:18:31.579Z,2.90
2018-02-25T06:19:31.502Z,3.10
2018-02-25T06:21:24.878Z,2.80
2018-02-25T06:22:24.666Z,3.00
2018-02-25T06:24:17.904Z,3.20
2018-02-25T06:25:17.828Z,3.30
2018-02-25T06:27:11.090Z,3.30
2018-02-25T06:28:10.989Z,3.20
2018-02-25T06:30:04.229Z,3.20
2018-02-25T06:31:04.151Z,2.80
2018-02-25T06:32:58.028Z,2.90
2018-02-25T06:33:57.500Z,3.00
2018-02-25T06:35:50.758Z,2.90
2018-02-25T06:36:50.690Z,2.90
2018-02-25T06:38:43.901Z,2.90
2018-02-25T06:39:43.815Z,3.10
2018-02-25T06:41:37.081Z,3.10
2018-02-25T06:42:36.983Z,3.00
2018-02-25T06:44:30.220Z,2.80
2018-02-25T06:45:30.144Z,3.00
2018-02-25T06:47:23.603Z,3.20
2018-02-25T06:48:23.505Z,3.10
2018-02-25T06:50:16.745Z,2.80
2018-02-25T06:51:16.669Z,2.90
2018-02-25T06:53:09.928Z,3.10
2018-02-25T06:54:09.829Z,3.00
2018-02-25T06:56:03.202Z,3.20
2018-02-25T06:57:02.990Z,3.00
2018-02-25T06:58:56.229Z,3.10
2018-02-25T06:59:56.153Z,3.60
2018-02-25T07:01:49.415Z,2.90
2018-02-25T07:02:49.315Z,3.10
2018-02-25T07:04:42.578Z,3.10
2018-02-25T07:05:42.498Z,2.80
2018-02-25T07:07:35.757Z,3.40
2018-02-25T07:08:35.658Z,3.60
2018-02-25T07:10:28.900Z,3.10
2018-02-25T07:11:28.825Z,3.20
2018-02-25T07:13:22.080Z,3.10
2018-02-25T07:14:21.985Z,3.20
2018-02-25T07:16:15.244Z,2.90
2018-02-25T07:17:15.145Z,3.00
2018-02-25T07:19:08.582Z,3.00
2018-02-25T07:20:08.500Z,3.00
2018-02-25T07:22:01.877Z,3.30
2018-02-25T07:23:01.666Z,3.40
2018-02-25T07:24:55.020Z,3.10
2018-02-25T07:25:54.831Z,2.90
2018-02-25T07:27:48.107Z,3.20
2018-02-25T07:28:47.991Z,3.20
2018-02-25T07:30:41.229Z,3.10
2018-02-25T07:31:41.151Z,3.10
2018-02-25T07:33:34.408Z,2.70
2018-02-25T07:34:34.318Z,3.00
2018-02-25T07:36:27.689Z,3.20
2018-02-25T07:37:27.498Z,3.20
2018-02-25T07:39:20.736Z,3.10
2018-02-25T07:40:20.651Z,3.20
2018-02-25T07:42:13.947Z,3.10
2018-02-25T07:43:13.822Z,3.10
2018-02-25T07:45:07.063Z,3.00
2018-02-25T07:46:06.985Z,3.10
2018-02-25T07:48:00.245Z,3.10
2018-02-25T07:49:00.157Z,2.70
2018-02-25T07:50:53.505Z,3.30
2018-02-25T07:51:53.313Z,3.30
2018-02-25T07:53:46.596Z,3.10
2018-02-25T07:54:46.500Z,3.00
2018-02-25T07:56:39.758Z,3.60
2018-02-25T07:57:39.697Z,3.50
2018-02-25T07:59:32.899Z,3.20
2018-02-25T08:00:32.824Z,3.60
2018-02-25T08:02:26.198Z,3.00
2018-02-25T08:03:26.008Z,3.50
2018-02-25T08:05:19.229Z,2.80
2018-02-25T08:06:19.150Z,2.90
2018-02-25T08:08:12.595Z,3.10
2018-02-25T08:09:12.494Z,3.30
2018-02-25T08:11:05.740Z,3.20
2018-02-25T08:12:05.658Z,3.10
2018-02-25T08:13:58.914Z,3.60
2018-02-25T08:14:58.822Z,3.40
2018-02-25T08:16:52.080Z,3.10
2018-02-25T08:17:51.983Z,2.90
2018-02-25T08:19:45.224Z,3.10
2018-02-25T08:20:45.146Z,3.30
2018-02-25T08:22:38.601Z,3.20
2018-02-25T08:23:38.501Z,3.20
2018-02-25T08:25:31.742Z,3.10
2018-02-25T08:26:31.655Z,3.10
2018-02-25T08:28:24.910Z,3.00
2018-02-25T08:29:24.806Z,2.80
2018-02-25T08:31:18.162Z,3.00
2018-02-25T08:32:17.960Z,3.10
2018-02-25T08:34:12.069Z,2.70
2018-02-25T08:35:11.972Z,3.00
2018-02-25T08:37:05.236Z,3.50
2018-02-25T08:38:05.137Z,3.50
2018-02-25T08:39:58.379Z,3.20
2018-02-25T08:40:58.292Z,3.00
2018-02-25T08:42:51.545Z,2.90
2018-02-25T08:43:51.447Z,2.90
2018-02-25T08:45:44.694Z,3.00
2018-02-25T08:46:44.614Z,2.90
2018-02-25T08:48:37.868Z,2.70
2018-02-25T08:49:37.769Z,2.90
2018-02-25T08:51:32.018Z,2.90
2018-02-25T08:52:31.928Z,2.90
2018-02-25T08:54:25.186Z,2.70
2018-02-25T08:55:25.090Z,2.70
2018-02-25T08:57:18.595Z,3.10
2018-02-25T08:58:18.498Z,2.80
2018-02-25T09:00:11.736Z,3.20
2018-02-25T09:01:11.658Z,2.90
2018-02-25T09:03:04.912Z,3.10
2018-02-25T09:04:04.821Z,2.80
2018-02-25T09:05:58.054Z,2.80
2018-02-25T09:06:57.986Z,3.00
2018-02-25T09:08:51.357Z,2.90
2018-02-25T09:09:51.148Z,3.40
2018-02-25T09:11:44.580Z,2.60
2018-02-25T09:12:44.503Z,2.60
2018-02-25T09:14:37.767Z,2.40
2018-02-25T09:15:37.672Z,2.50
2018-02-25T09:17:30.942Z,2.90
2018-02-25T09:18:30.847Z,3.00
2018-02-25T09:20:24.092Z,2.60
2018-02-25T09:21:24.017Z,2.60
2018-02-25T09:23:17.304Z,2.80
2018-02-25T09:24:17.198Z,2.50
2018-02-25T09:26:10.636Z,2.60
2018-02-25T09:27:10.564Z,2.60
2018-02-25T09:29:03.826Z,2.50
2018-02-25T09:30:03.723Z,2.70
2018-02-25T09:31:57.082Z,2.80
2018-02-25T09:32:56.885Z,2.70
2018-02-25T09:34:50.155Z,2.80
2018-02-25T09:35:50.060Z,2.90
2018-02-25T09:37:43.321Z,2.80
2018-02-25T09:38:43.226Z,2.50
2018-02-25T09:40:36.613Z,2.80
2018-02-25T09:41:36.507Z,2.70
2018-02-25T09:43:29.776Z,2.40
2018-02-25T09:44:29.675Z,2.70
2018-02-25T09:46:23.033Z,2.60
2018-02-25T09:47:22.838Z,2.50
2018-02-25T09:49:16.104Z,2.60
2018-02-25T09:50:16.012Z,2.60
2018-02-25T09:52:09.252Z,2.70
2018-02-25T09:53:09.181Z,2.80
2018-02-25T09:55:02.590Z,2.30
2018-02-25T09:56:02.499Z,2.70
2018-02-25T09:57:55.761Z,2.80
2018-02-25T09:58:55.666Z,2.80
2018-02-25T10:00:48.910Z,2.50
2018-02-25T10:01:48.839Z,2.90
2018-02-25T10:03:42.221Z,2.40
2018-02-25T10:04:42.016Z,2.30
2018-02-25T10:06:35.273Z,2.40
2018-02-25T10:07:35.197Z,2.60
2018-02-25T10:09:28.592Z,2.80
2018-02-25T10:10:28.499Z,2.70
2018-02-25T10:12:21.751Z,2.30
2018-02-25T10:13:21.681Z,2.40
2018-02-25T10:15:14.951Z,2.30
2018-02-25T10:16:14.861Z,2.00
2018-02-25T10:18:08.130Z,2.00
2018-02-25T10:19:08.038Z,2.30
2018-02-25T10:21:01.401Z,2.30
2018-02-25T10:22:01.252Z,2.40
2018-02-25T10:23:54.594Z,2.20
2018-02-25T10:24:54.500Z,2.10
2018-02-25T10:26:47.862Z,2.00
2018-02-25T10:27:47.677Z,2.10
2018-02-25T10:29:41.058Z,2.10
2018-02-25T10:30:40.861Z,2.30
2018-02-25T10:32:34.113Z,2.40
2018-02-25T10:33:34.040Z,2.20
2018-02-25T10:35:27.307Z,2.40
2018-02-25T10:36:27.214Z,2.10
2018-02-25T10:38:20.599Z,2.00
2018-02-25T10:39:20.509Z,1.90
2018-02-25T10:41:13.755Z,1.90
2018-02-25T10:42:13.680Z,2.30
2018-02-25T10:44:06.992Z,2.30
2018-02-25T10:45:06.857Z,2.30
2018-02-25T10:47:00.109Z,2.40
2018-02-25T10:48:00.036Z,2.30
2018-02-25T10:49:53.300Z,2.40
2018-02-25T10:50:53.200Z,2.30
2018-02-25T10:52:46.574Z,2.10
2018-02-25T10:53:46.502Z,1.90
2018-02-25T10:55:39.765Z,2.00
2018-02-25T10:56:39.668Z,1.80
2018-02-25T10:58:32.929Z,1.70
2018-02-25T10:59:32.839Z,1.60
2018-02-25T11:01:26.195Z,2.00
2018-02-25T11:02:26.004Z,1.90
2018-02-25T11:04:19.262Z,1.70
2018-02-25T11:05:19.169Z,1.60
2018-02-25T11:07:12.573Z,2.10
2018-02-25T11:08:12.499Z,2.10
2018-02-25T11:10:05.776Z,1.50
2018-02-25T11:11:05.668Z,2.10
2018-02-25T11:12:58.906Z,1.50
2018-02-25T11:13:58.831Z,1.70
2018-02-25T11:15:52.092Z,1.80
2018-02-25T11:16:52.000Z,2.00
2018-02-25T11:18:45.266Z,2.00
2018-02-25T11:19:45.171Z,1.50
2018-02-25T11:21:38.592Z,1.60
2018-02-25T11:22:38.500Z,1.80
2018-02-25T11:24:31.755Z,1.60
2018-02-25T11:25:31.663Z,1.80
2018-02-25T11:27:24.904Z,1.70
2018-02-25T11:28:24.825Z,1.90
2018-02-25T11:30:18.092Z,1.70
2018-02-25T11:31:18.024Z,1.50
2018-02-25T11:33:11.228Z,1.70
2018-02-25T11:34:11.154Z,1.60
2018-02-25T11:36:04.591Z,1.80
2018-02-25T11:37:04.497Z,1.80
2018-02-25T11:38:57.875Z,1.70
2018-02-25T11:39:57.656Z,1.80
2018-02-25T11:41:50.891Z,1.60
2018-02-25T11:42:50.824Z,1.80
2018-02-25T11:44:44.215Z,1.90
2018-02-25T11:45:43.976Z,1.90
2018-02-25T11:47:37.220Z,2.10
2018-02-25T11:48:37.140Z,2.10
2018-02-25T11:50:30.588Z,2.10
2018-02-25T11:51:30.495Z,2.20
2018-02-25T11:53:23.732Z,2.10
2018-02-25T11:54:23.653Z,2.30
2018-02-25T11:56:16.913Z,2.20
2018-02-25T11:57:16.817Z,1.90
2018-02-25T11:59:10.074Z,2.00
2018-02-25T12:00:09.979Z,2.10
2018-02-25T12:02:03.226Z,1.70
2018-02-25T12:03:03.139Z,1.60
2018-02-25T12:04:56.594Z,2.00
2018-02-25T12:05:56.499Z,2.00
2018-02-25T12:07:49.785Z,2.10
2018-02-25T12:08:49.707Z,2.00
2018-02-25T12:10:43.013Z,1.70
2018-02-25T12:11:42.923Z,2.20
2018-02-25T12:13:36.155Z,1.80
2018-02-25T12:14:36.083Z,1.90
2018-02-25T12:16:29.333Z,2.00
2018-02-25T12:17:29.247Z,1.80
2018-02-25T12:19:22.605Z,2.10
2018-02-25T12:20:22.507Z,2.30
2018-02-25T12:22:15.744Z,2.20
2018-02-25T12:23:15.666Z,2.20
2018-02-25T12:25:08.923Z,2.10
2018-02-25T12:26:08.825Z,2.30
2018-02-25T12:28:02.064Z,2.00
2018-02-25T12:29:02.011Z,1.90
2018-02-25T12:30:55.240Z,1.90
2018-02-25T12:31:55.143Z,2.00
2018-02-25T12:33:48.577Z,2.10
2018-02-25T12:34:48.502Z,2.00
2018-02-25T12:36:41.884Z,1.80
2018-02-25T12:37:41.668Z,2.00
2018-02-25T12:39:35.046Z,2.10
2018-02-25T12:40:34.826Z,2.20
2018-02-25T12:42:28.071Z,1.70
2018-02-25T12:43:27.995Z,2.30
2018-02-25T12:45:21.250Z,1.90
2018-02-25T12:46:21.156Z,1.80
2018-02-25T12:48:14.575Z,1.80
2018-02-25T12:49:14.498Z,1.60
2018-02-25T12:51:07.754Z,2.00
2018-02-25T12:52:07.658Z,2.00
2018-02-25T12:54:01.022Z,2.00
2018-02-25T12:55:00.816Z,1.80
2018-02-25T12:56:54.199Z,2.00
2018-02-25T12:57:53.977Z,2.10
2018-02-25T12:59:47.234Z,1.60
2018-02-25T13:00:47.144Z,1.70
2018-02-25T13:02:40.576Z,1.80
2018-02-25T13:03:40.502Z,1.50
2018-02-25T13:05:33.755Z,2.00
2018-02-25T13:06:33.667Z,1.80
2018-02-25T13:08:26.896Z,1.80
2018-02-25T13:09:26.822Z,1.80
2018-02-25T13:11:20.079Z,1.80
2018-02-25T13:12:19.983Z,1.80
2018-02-25T13:14:13.228Z,2.00
2018-02-25T13:15:13.150Z,1.70
2018-02-25T13:17:06.599Z,1.60
2018-02-25T13:18:06.504Z,1.60
2018-02-25T13:19:59.769Z,1.90
2018-02-25T13:20:59.661Z,1.50
2018-02-25T13:22:52.902Z,1.90
2018-02-25T13:23:52.825Z,1.70
2018-02-25T13:25:46.101Z,1.80
2018-02-25T13:26:46.012Z,1.60
2018-02-25T13:28:39.418Z,1.90
2018-02-25T13:29:39.171Z,1.80
2018-02-25T13:31:32.597Z,1.70
2018-02-25T13:32:32.501Z,1.80
2018-02-25T13:34:25.786Z,1.90
2018-02-25T13:35:25.661Z,1.80
2018-02-25T13:37:18.916Z,1.40
2018-02-25T13:38:18.820Z,1.40
2018-02-25T13:40:12.082Z,1.90
2018-02-25T13:41:11.984Z,1.80
2018-02-25T13:43:05.350Z,1.70
2018-02-25T13:44:05.144Z,1.50
2018-02-25T13:45:58.398Z,1.50
2018-02-25T13:46:58.303Z,1.70
2018-02-25T13:48:51.542Z,1.60
2018-02-25T13:49:51.462Z,1.60
2018-02-25T13:51:45.741Z,1.40
2018-02-25T13:52:45.626Z,1.60
2018-02-25T13:54:38.984Z,1.90
2018-02-25T13:55:38.785Z,1.70
2018-02-25T13:57:32.047Z,1.50
2018-02-25T13:58:31.953Z,1.50
2018-02-25T14:00:25.208Z,1.60
2018-02-25T14:01:25.112Z,1.90
2018-02-25T14:03:18.346Z,2.10
2018-02-25T14:04:18.270Z,1.80
2018-02-25T14:06:11.650Z,1.90
2018-02-25T14:07:11.450Z,1.90
2018-02-25T14:09:04.688Z,2.10
2018-02-25T14:10:04.587Z,2.00
2018-02-25T14:11:57.853Z,1.80
2018-02-25T14:12:57.755Z,1.90
2018-02-25T14:14:50.991Z,1.60
2018-02-25T14:15:50.912Z,1.90
2018-02-25T14:17:44.176Z,1.50
2018-02-25T14:18:44.081Z,1.60
2018-02-25T14:20:37.463Z,1.60
2018-02-25T14:21:37.247Z,1.80
2018-02-25T14:23:30.590Z,1.50
2018-02-25T14:24:30.503Z,1.80
2018-02-25T14:26:23.762Z,1.70
2018-02-25T14:27:23.666Z,1.50
2018-02-25T14:29:17.026Z,1.50
2018-02-25T14:30:16.823Z,1.50
2018-02-25T14:32:10.086Z,1.50
2018-02-25T14:33:09.983Z,1.60
2018-02-25T14:35:03.220Z,1.80
2018-02-25T14:36:03.143Z,1.70
2018-02-25T14:37:56.588Z,1.90
2018-02-25T14:38:56.496Z,1.70
2018-02-25T14:40:49.754Z,1.60
2018-02-25T14:41:49.656Z,1.70
2018-02-25T14:43:43.015Z,1.50
2018-02-25T14:44:42.825Z,1.50
2018-02-25T14:46:36.081Z,1.70
2018-02-25T14:47:35.998Z,1.60
2018-02-25T14:49:29.374Z,1.50
2018-02-25T14:50:29.144Z,1.50
2018-02-25T14:52:22.593Z,1.50
2018-02-25T14:53:22.546Z,1.50
2018-02-25T14:55:15.858Z,1.80
2018-02-25T14:56:15.668Z,1.70
2018-02-25T14:58:08.924Z,1.60
2018-02-25T14:59:08.828Z,1.50
2018-02-25T15:01:02.208Z,1.60
2018-02-25T15:02:01.985Z,1.60
2018-02-25T15:03:55.221Z,1.80
2018-02-25T15:04:55.143Z,1.80
2018-02-25T15:06:48.600Z,1.60
2018-02-25T15:07:48.506Z,1.60
2018-02-25T15:09:41.750Z,1.40
2018-02-25T15:10:41.675Z,1.70
2018-02-25T15:12:34.940Z,2.10
2018-02-25T15:13:34.832Z,1.70
2018-02-25T15:15:28.071Z,1.90
2018-02-25T15:16:27.996Z,1.80
2018-02-25T15:18:21.249Z,1.70
2018-02-25T15:19:21.151Z,1.70
2018-02-25T15:21:14.606Z,1.70
2018-02-25T15:22:14.509Z,1.60
2018-02-25T15:24:08.754Z,2.00
2018-02-25T15:25:08.681Z,1.80
2018-02-25T15:27:01.933Z,1.70
2018-02-25T15:28:01.840Z,1.70
2018-02-25T15:29:55.078Z,1.70
2018-02-25T15:30:54.998Z,1.90
2018-02-25T15:32:48.254Z,1.50
2018-02-25T15:33:48.158Z,1.60
2018-02-25T15:35:41.413Z,1.90
2018-02-25T15:36:41.318Z,1.90
2018-02-25T15:38:34.603Z,1.90
2018-02-25T15:39:34.516Z,1.70
2018-02-25T15:41:27.765Z,2.00
2018-02-25T15:42:27.668Z,1.80
2018-02-25T15:44:20.926Z,1.70
2018-02-25T15:45:20.855Z,2.10
2018-02-25T15:47:14.217Z,1.90
2018-02-25T15:48:14.005Z,1.60
2018-02-25T15:50:07.239Z,2.00
2018-02-25T15:51:07.158Z,1.80
2018-02-25T15:53:00.403Z,1.90
2018-02-25T15:54:00.315Z,1.80
2018-02-25T15:55:53.693Z,2.00
2018-02-25T15:56:53.504Z,1.90
2018-02-25T15:58:46.753Z,1.80
2018-02-25T15:59:46.683Z,1.90
2018-02-25T16:01:39.917Z,1.90
2018-02-25T16:02:39.823Z,1.60
2018-02-25T16:04:33.054Z,2.00
2018-02-25T16:05:32.979Z,1.80
2018-02-25T16:07:26.245Z,1.80
2018-02-25T16:08:26.152Z,1.80
2018-02-25T16:10:19.580Z,2.10
2018-02-25T16:11:19.496Z,1.80
2018-02-25T16:13:12.754Z,1.90
2018-02-25T16:14:12.660Z,1.90
2018-02-25T16:16:05.915Z,1.70
2018-02-25T16:17:05.815Z,1.50
2018-02-25T16:18:59.050Z,1.90
2018-02-25T16:19:58.973Z,2.00
2018-02-25T16:21:52.228Z,1.50
2018-02-25T16:22:52.132Z,1.60
2018-02-25T16:24:45.578Z,1.70
2018-02-25T16:25:45.505Z,1.80
2018-02-25T16:27:38.879Z,1.70
2018-02-25T16:28:38.657Z,1.90
2018-02-25T16:30:31.899Z,2.00
2018-02-25T16:31:31.824Z,1.70
2018-02-25T16:33:25.081Z,1.80
2018-02-25T16:34:24.986Z,2.00
2018-02-25T16:36:18.242Z,1.70
2018-02-25T16:37:18.147Z,2.00
2018-02-25T16:39:11.585Z,2.20
2018-02-25T16:40:11.493Z,2.20
2018-02-25T16:42:04.747Z,2.40
2018-02-25T16:43:04.648Z,2.10
2018-02-25T16:44:57.884Z,1.80
2018-02-25T16:45:57.804Z,2.10
2018-02-25T16:47:51.086Z,2.00
2018-02-25T16:48:50.991Z,2.00
2018-02-25T16:50:44.230Z,2.20
2018-02-25T16:51:44.150Z,2.10
2018-02-25T16:53:37.591Z,2.20
2018-02-25T16:54:37.554Z,2.20
2018-02-25T16:56:30.756Z,1.70
2018-02-25T16:57:30.657Z,1.90
2018-02-25T16:59:23.885Z,2.10
2018-02-25T17:00:23.810Z,2.00
2018-02-25T17:02:17.062Z,2.20
2018-02-25T17:03:16.966Z,2.00
2018-02-25T17:05:10.201Z,2.10
2018-02-25T17:06:10.121Z,1.90
2018-02-25T17:08:03.603Z,2.20
2018-02-25T17:09:03.504Z,2.10
2018-02-25T17:10:56.765Z,2.20
2018-02-25T17:11:56.670Z,2.30
2018-02-25T17:13:49.939Z,2.10
2018-02-25T17:14:49.843Z,2.00
2018-02-25T17:16:43.104Z,2.20
2018-02-25T17:17:43.008Z,2.10
2018-02-25T17:19:36.252Z,2.20
2018-02-25T17:20:36.181Z,2.20
2018-02-25T17:22:29.593Z,2.30
2018-02-25T17:23:29.502Z,2.30
2018-02-25T17:25:22.743Z,2.40
2018-02-25T17:26:22.668Z,2.30
2018-02-25T17:28:15.927Z,2.50
2018-02-25T17:29:15.832Z,2.30
2018-02-25T17:31:09.079Z,2.30
2018-02-25T17:32:09.002Z,2.40
2018-02-25T17:34:02.268Z,2.30
2018-02-25T17:35:02.171Z,2.10
2018-02-25T17:36:55.596Z,2.00
2018-02-25T17:37:55.497Z,2.20
2018-02-25T17:39:48.743Z,2.10
2018-02-25T17:40:48.665Z,2.30
2018-02-25T17:42:41.931Z,2.30
2018-02-25T17:43:41.837Z,2.40
2018-02-25T17:45:35.082Z,1.90
2018-02-25T17:46:35.006Z,2.10
2018-02-25T17:48:28.276Z,2.30
2018-02-25T17:49:28.177Z,2.00
2018-02-25T17:51:21.576Z,2.00
2018-02-25T17:52:21.492Z,2.20
2018-02-25T17:54:14.770Z,1.90
2018-02-25T17:55:24.374Z,2.10
2018-02-25T17:57:07.936Z,2.70
2018-02-25T17:58:07.842Z,2.20
2018-02-25T18:00:01.081Z,2.00
2018-02-25T18:01:00.999Z,1.90
2018-02-25T18:02:54.380Z,1.90
2018-02-25T18:03:54.173Z,2.00
2018-02-25T18:05:47.572Z,2.00
2018-02-25T18:06:47.491Z,2.10
2018-02-25T18:08:40.763Z,2.00
2018-02-25T18:09:40.656Z,2.10
2018-02-25T18:11:33.904Z,2.00
2018-02-25T18:12:33.829Z,2.00
2018-02-25T18:14:27.088Z,2.00
2018-02-25T18:15:26.992Z,2.10
2018-02-25T18:17:20.258Z,2.10
2018-02-25T18:18:20.162Z,2.30
2018-02-25T18:20:13.580Z,2.10
2018-02-25T18:21:13.500Z,2.20
2018-02-25T18:23:06.765Z,1.80
2018-02-25T18:24:06.666Z,1.80
2018-02-25T18:25:59.910Z,1.80
2018-02-25T18:26:59.838Z,2.20
2018-02-25T18:28:53.094Z,2.10
2018-02-25T18:29:53.011Z,2.30
2018-02-25T18:31:46.237Z,2.50
2018-02-25T18:32:46.166Z,2.30
2018-02-25T18:34:39.596Z,2.10
2018-02-25T18:35:39.501Z,2.10
2018-02-25T18:37:32.761Z,2.30
2018-02-25T18:38:32.664Z,2.40
2018-02-25T18:40:25.899Z,2.10
2018-02-25T18:41:25.821Z,2.20
2018-02-25T18:43:19.083Z,2.30
2018-02-25T18:44:18.989Z,2.40
2018-02-25T18:46:12.229Z,2.30
2018-02-25T18:47:12.186Z,2.30
2018-02-25T18:49:05.590Z,2.30
2018-02-25T18:50:05.493Z,2.00
2018-02-25T18:51:58.735Z,2.30
2018-02-25T18:52:58.661Z,1.90
2018-02-25T18:54:51.922Z,2.60
2018-02-25T18:55:51.823Z,2.30
2018-02-25T18:57:45.199Z,2.30
2018-02-25T18:58:44.989Z,2.40
2018-02-25T19:00:38.237Z,2.80
2018-02-25T19:01:38.157Z,2.60
2018-02-25T19:03:31.596Z,2.60
2018-02-25T19:04:31.499Z,2.50
2018-02-25T19:06:24.856Z,2.70
2018-02-25T19:07:24.666Z,2.80
2018-02-25T19:09:17.932Z,2.70
2018-02-25T19:10:17.837Z,2.70
2018-02-25T19:12:11.075Z,2.70